createdAt,value
2017-11-01T16:48:28.642Z,86.90
2017-11-01T16:49:31.198Z,86.80
2017-11-01T16:50:33.778Z,86.80
2017-11-01T16:51:36.302Z,86.60
2017-11-01T16:52:39.597Z,86.30
2017-11-01T16:53:42.121Z,86.30
2017-11-01T16:54:44.654Z,86.40
2017-11-01T16:55:47.209Z,86.20
2017-11-01T16:56:49.725Z,86.10
2017-11-01T16:57:52.260Z,86.00
2017-11-01T16:58:54.801Z,86.00
2017-11-01T16:59:57.328Z,86.00
2017-11-01T17:00:59.885Z,86.10
2017-11-01T17:02:02.438Z,86.40
2017-11-01T17:03:04.966Z,86.30
2017-11-01T17:04:07.490Z,86.30
2017-11-01T17:05:10.053Z,85.90
2017-11-01T17:06:12.638Z,86.10
2017-11-01T17:07:15.977Z,86.40
2017-11-01T17:08:18.505Z,86.30
2017-11-01T17:09:21.029Z,86.30
2017-11-01T17:10:23.562Z,86.50
2017-11-01T17:11:26.092Z,86.40
2017-11-01T17:12:29.447Z,86.30
2017-11-01T17:13:32.198Z,86.20
2017-11-01T17:14:35.045Z,86.30
2017-11-01T17:15:37.581Z,86.30
2017-11-01T17:16:40.911Z,86.20
2017-11-01T17:17:43.438Z,86.20
2017-11-01T17:18:46.726Z,86.20
2017-11-01T17:19:50.019Z,86.10
2017-11-01T17:20:52.590Z,86.00
2017-11-01T17:21:55.118Z,85.90
2017-11-01T17:22:57.649Z,85.60
2017-11-01T17:24:00.183Z,85.70
2017-11-01T17:25:02.711Z,85.90
2017-11-01T17:26:05.292Z,86.10
2017-11-01T17:27:08.593Z,86.00
2017-11-01T17:28:11.877Z,86.00
2017-11-01T17:29:14.410Z,86.00
2017-11-01T17:30:16.933Z,86.10
2017-11-01T17:31:19.502Z,85.80
2017-11-01T17:32:22.075Z,85.70
2017-11-01T17:33:24.608Z,85.60
2017-11-01T17:34:27.138Z,85.70
2017-11-01T17:35:29.672Z,85.60
2017-11-01T17:36:32.202Z,85.80
2017-11-01T17:37:34.749Z,85.70
2017-11-01T17:38:38.049Z,86.10
2017-11-01T17:39:41.337Z,85.60
2017-11-01T17:40:44.621Z,85.40
2017-11-01T17:41:47.182Z,85.40
2017-11-01T17:42:50.614Z,85.40
2017-11-01T17:43:53.162Z,85.40
2017-11-01T17:44:55.689Z,85.40
2017-11-01T17:45:58.985Z,85.70
2017-11-01T17:47:02.316Z,85.70
2017-11-01T17:48:04.865Z,85.60
2017-11-01T17:49:07.385Z,85.50
2017-11-01T17:50:10.687Z,86.10
2017-11-01T17:51:14.039Z,85.90
2017-11-01T17:52:16.606Z,85.90
2017-11-01T17:53:19.156Z,86.00
2017-11-01T17:54:21.686Z,86.00
2017-11-01T17:55:24.249Z,86.20
2017-11-01T17:56:26.770Z,86.20
2017-11-01T17:57:29.341Z,86.10
2017-11-01T17:58:31.869Z,86.40
2017-11-01T17:59:34.426Z,86.50
2017-11-01T18:00:36.961Z,86.70
2017-11-01T18:01:40.271Z,86.60
2017-11-01T18:02:42.797Z,86.70
2017-11-01T18:03:45.362Z,86.40
2017-11-01T18:04:49.171Z,86.40
2017-11-01T18:05:52.479Z,86.40
2017-11-01T18:06:55.000Z,86.40
2017-11-01T18:07:57.537Z,86.10
2017-11-01T18:09:00.094Z,86.30
2017-11-01T18:10:02.617Z,86.40
2017-11-01T18:11:05.943Z,86.50
2017-11-01T18:12:08.476Z,86.40
2017-11-01T18:13:11.018Z,86.40
2017-11-01T18:14:13.543Z,86.40
2017-11-01T18:15:16.126Z,86.40
2017-11-01T18:16:18.678Z,86.60
2017-11-01T18:17:21.205Z,86.50
2017-11-01T18:18:24.580Z,86.60
2017-11-01T18:19:27.182Z,86.50
2017-11-01T18:20:29.742Z,86.50
2017-11-01T18:21:32.268Z,86.50
2017-11-01T18:22:34.793Z,86.50
2017-11-01T18:23:37.322Z,86.50
2017-11-01T18:24:40.662Z,86.50
2017-11-01T18:25:43.186Z,87.30
2017-11-01T18:26:45.745Z,86.70
2017-11-01T18:27:48.281Z,87.50
2017-11-01T18:28:50.820Z,86.70
2017-11-01T18:29:53.349Z,86.70
2017-11-01T18:30:55.891Z,86.80
2017-11-01T18:31:59.213Z,86.80
2017-11-01T18:33:01.741Z,86.80
2017-11-01T18:34:05.035Z,87.40
2017-11-01T18:35:08.361Z,86.80
2017-11-01T18:36:10.929Z,86.90
2017-11-01T18:37:13.469Z,87.00
2017-11-01T18:38:15.997Z,87.00
2017-11-01T18:39:18.546Z,87.80
2017-11-01T18:40:21.070Z,87.10
2017-11-01T18:41:23.633Z,86.90
2017-11-01T18:42:26.155Z,87.00
2017-11-01T18:43:28.689Z,87.10
2017-11-01T18:44:31.238Z,87.10
2017-11-01T18:45:33.807Z,87.30
2017-11-01T18:46:36.352Z,87.30
2017-11-01T18:47:39.674Z,87.20
2017-11-01T18:48:42.212Z,87.20
2017-11-01T18:49:44.745Z,87.10
2017-11-01T18:50:47.305Z,87.40
2017-11-01T18:51:49.830Z,87.00
2017-11-01T18:52:52.378Z,87.00
2017-11-01T18:53:54.961Z,87.00
2017-11-01T18:54:57.485Z,87.00
2017-11-01T18:56:00.785Z,86.90
2017-11-01T18:57:04.077Z,87.10
2017-11-01T18:58:06.676Z,87.10
2017-11-01T18:59:09.259Z,87.00
2017-11-01T19:00:11.789Z,86.90
2017-11-01T19:01:14.314Z,86.70
2017-11-01T19:02:17.614Z,86.90
2017-11-01T19:03:20.939Z,86.80
2017-11-01T19:04:23.473Z,86.80
2017-11-01T19:05:26.011Z,86.70
2017-11-01T19:06:28.534Z,86.80
2017-11-01T19:07:31.124Z,86.80
2017-11-01T19:08:33.648Z,86.90
2017-11-01T19:09:36.177Z,87.00
2017-11-01T19:10:38.716Z,86.80
2017-11-01T19:11:41.246Z,86.70
2017-11-01T19:12:43.814Z,86.50
2017-11-01T19:13:46.342Z,86.70
2017-11-01T19:14:48.868Z,86.70
2017-11-01T19:15:51.406Z,86.80
2017-11-01T19:16:53.995Z,86.80
2017-11-01T19:17:56.562Z,86.80
2017-11-01T19:18:59.085Z,86.90
2017-11-01T19:20:02.394Z,86.90
2017-11-01T19:21:04.929Z,86.90
2017-11-01T19:22:08.221Z,86.80
2017-11-01T19:23:11.553Z,86.80
2017-11-01T19:24:14.074Z,86.80
2017-11-01T19:25:17.390Z,86.40
2017-11-01T19:26:19.970Z,86.40
2017-11-01T19:27:22.497Z,87.10
2017-11-01T19:28:25.831Z,86.40
2017-11-01T19:29:28.362Z,86.40
2017-11-01T19:30:30.887Z,86.40
2017-11-01T19:31:34.221Z,86.60
2017-11-01T19:32:36.750Z,86.60
2017-11-01T19:33:40.053Z,86.50
2017-11-01T19:34:42.622Z,86.50
2017-11-01T19:35:45.150Z,86.50
2017-11-01T19:36:47.725Z,86.10
2017-11-01T19:37:50.439Z,86.10
2017-11-01T19:38:52.978Z,86.10
2017-11-01T19:39:56.308Z,86.10
2017-11-01T19:40:58.835Z,86.10
2017-11-01T19:42:01.367Z,86.10
2017-11-01T19:44:13.494Z,86.80
2017-11-01T19:45:16.814Z,86.00
2017-11-01T19:46:19.355Z,86.00
2017-11-01T19:47:21.893Z,86.10
2017-11-01T19:48:24.453Z,85.80
2017-11-01T19:49:27.760Z,85.50
2017-11-01T19:50:30.326Z,86.70
2017-11-01T19:51:32.869Z,86.10
2017-11-01T19:52:36.170Z,86.10
2017-11-01T19:53:39.529Z,85.90
2017-11-01T19:54:42.845Z,85.80
2017-11-01T19:55:46.134Z,85.90
2017-11-01T19:56:48.662Z,85.80
2017-11-01T19:57:51.188Z,85.70
2017-11-01T19:58:54.837Z,85.90
2017-11-01T19:59:57.414Z,85.60
2017-11-01T20:01:00.947Z,85.90
2017-11-01T20:02:03.481Z,85.90
2017-11-01T20:03:06.009Z,85.90
2017-11-01T20:04:08.567Z,85.90
2017-11-01T20:05:11.102Z,85.80
2017-11-01T20:06:13.681Z,85.80
2017-11-01T20:07:16.222Z,85.80
2017-11-01T20:08:18.776Z,85.80
2017-11-01T20:09:21.302Z,85.90
2017-11-01T20:10:23.831Z,85.90
2017-11-01T20:11:26.386Z,86.10
2017-11-01T20:12:28.913Z,85.60
2017-11-01T20:13:31.471Z,85.50
2017-11-01T20:14:33.998Z,85.80
2017-11-01T20:15:36.556Z,85.60
2017-11-01T20:16:39.091Z,85.30
2017-11-01T20:17:42.402Z,85.50
2017-11-01T20:18:44.926Z,85.50
2017-11-01T20:19:47.507Z,85.50
2017-11-01T20:20:50.808Z,85.50
2017-11-01T20:21:53.330Z,85.50
2017-11-01T20:22:55.854Z,85.50
2017-11-01T20:23:58.387Z,85.30
2017-11-01T20:25:00.983Z,85.20
2017-11-01T20:26:03.517Z,85.30
2017-11-01T20:27:06.821Z,85.10
2017-11-01T20:28:09.354Z,85.00
2017-11-01T20:29:11.904Z,85.20
2017-11-01T20:30:14.497Z,85.00
2017-11-01T20:31:18.796Z,84.50
2017-11-01T20:32:22.842Z,85.00
2017-11-01T20:33:26.461Z,85.00
2017-11-01T20:34:30.354Z,84.80
2017-11-01T20:35:35.185Z,85.00
2017-11-01T20:36:38.300Z,85.00
2017-11-01T20:37:41.483Z,84.90
2017-11-01T20:38:44.362Z,85.20
2017-11-01T20:39:47.144Z,85.00
2017-11-01T20:40:49.929Z,85.00
2017-11-01T20:41:52.571Z,85.00
2017-11-01T20:42:56.451Z,85.00
2017-11-01T20:43:59.347Z,84.80
2017-11-01T20:45:02.734Z,85.10
2017-11-01T20:46:06.035Z,85.10
2017-11-01T20:47:08.553Z,85.00
2017-11-01T20:48:11.082Z,84.60
2017-11-01T20:49:13.647Z,84.80
2017-11-01T20:50:16.207Z,84.80
2017-11-01T20:51:18.731Z,84.60
2017-11-01T20:52:22.052Z,84.70
2017-11-01T20:53:24.577Z,84.70
2017-11-01T20:54:27.157Z,84.80
2017-11-01T20:55:30.454Z,84.60
2017-11-01T20:56:33.014Z,84.50
2017-11-01T20:57:36.314Z,84.50
2017-11-01T20:58:38.862Z,84.50
2017-11-01T20:59:42.154Z,84.60
2017-11-01T21:00:44.714Z,84.50
2017-11-01T21:01:48.002Z,84.60
2017-11-01T21:02:51.293Z,84.50
2017-11-01T21:03:53.817Z,84.40
2017-11-01T21:04:56.374Z,84.40
2017-11-01T21:05:58.909Z,84.10
2017-11-01T21:07:01.448Z,84.30
2017-11-01T21:08:03.989Z,84.40
2017-11-01T21:09:06.547Z,84.00
2017-11-01T21:10:09.074Z,83.70
2017-11-01T21:11:11.597Z,83.60
2017-11-01T21:12:14.933Z,83.80
2017-11-01T21:13:17.528Z,83.80
2017-11-01T21:14:20.059Z,83.60
2017-11-01T21:15:22.605Z,83.50
2017-11-01T21:16:25.140Z,83.60
2017-11-01T21:17:28.448Z,83.00
2017-11-01T21:18:31.769Z,83.00
2017-11-01T21:19:34.292Z,83.00
2017-11-01T21:20:37.586Z,82.90
2017-11-01T21:21:40.126Z,82.90
2017-11-01T21:22:42.709Z,82.90
2017-11-01T21:23:46.003Z,82.90
2017-11-01T21:24:48.537Z,82.90
2017-11-01T21:25:51.063Z,82.80
2017-11-01T21:26:53.578Z,83.20
2017-11-01T21:27:56.148Z,82.00
2017-11-01T21:28:59.442Z,82.30
2017-11-01T21:30:02.733Z,82.50
2017-11-01T21:31:05.261Z,82.40
2017-11-01T21:32:08.152Z,82.20
2017-11-01T21:33:10.741Z,81.70
2017-11-01T21:34:13.274Z,81.70
2017-11-01T21:35:15.798Z,81.80
2017-11-01T21:36:18.320Z,81.80
2017-11-01T21:37:21.652Z,81.60
2017-11-01T21:38:24.175Z,81.50
2017-11-01T21:39:27.499Z,81.20
2017-11-01T21:40:30.035Z,81.10
2017-11-01T21:41:33.332Z,81.30
2017-11-01T21:42:36.630Z,81.30
2017-11-01T21:43:40.001Z,81.00
2017-11-01T21:44:42.633Z,80.90
2017-11-01T21:45:45.159Z,81.60
2017-11-01T21:46:47.682Z,81.20
2017-11-01T21:47:50.220Z,81.20
2017-11-01T21:48:52.751Z,81.10
2017-11-01T21:49:55.314Z,80.80
2017-11-01T21:50:57.841Z,81.20
2017-11-01T21:52:01.133Z,81.60
2017-11-01T21:53:04.469Z,80.90
2017-11-01T21:54:06.993Z,80.90
2017-11-01T21:55:09.530Z,80.90
2017-11-01T21:56:12.840Z,81.80
2017-11-01T21:57:15.370Z,81.40
2017-11-01T21:58:17.931Z,81.30
2017-11-01T21:59:20.461Z,81.40
2017-11-01T22:00:22.986Z,81.00
2017-11-01T22:01:26.313Z,81.30
2017-11-01T22:02:28.851Z,81.30
2017-11-01T22:03:32.142Z,81.60
2017-11-01T22:04:34.670Z,81.60
2017-11-01T22:05:37.201Z,81.70
2017-11-01T22:06:39.761Z,81.80
2017-11-01T22:07:42.278Z,81.50
2017-11-01T22:08:45.585Z,81.40
2017-11-01T22:09:48.137Z,81.40
2017-11-01T22:10:51.422Z,81.30
2017-11-01T22:11:54.713Z,81.50
2017-11-01T22:12:57.271Z,81.50
2017-11-01T22:14:00.569Z,81.40
2017-11-01T22:15:03.104Z,82.00
2017-11-01T22:16:05.631Z,81.20
2017-11-01T22:17:08.188Z,81.30
2017-11-01T22:18:10.719Z,81.30
2017-11-01T22:19:14.018Z,81.30
2017-11-01T22:20:16.547Z,81.30
2017-11-01T22:21:19.109Z,81.60
2017-11-01T22:22:21.679Z,81.80
2017-11-01T22:23:24.204Z,81.40
2017-11-01T22:24:26.722Z,81.50
2017-11-01T22:25:30.022Z,81.70
2017-11-01T22:26:33.311Z,81.00
2017-11-01T22:27:35.876Z,81.00
2017-11-01T22:28:38.441Z,81.10
2017-11-01T22:29:41.744Z,81.00
2017-11-01T22:30:44.392Z,81.00
2017-11-01T22:31:47.726Z,80.90
2017-11-01T22:32:50.249Z,80.90
2017-11-01T22:33:52.774Z,81.00
2017-11-01T22:34:55.304Z,80.50
2017-11-01T22:35:57.832Z,80.40
2017-11-01T22:37:01.162Z,80.30
2017-11-01T22:38:03.688Z,80.30
2017-11-01T22:39:06.973Z,80.30
2017-11-01T22:40:10.270Z,80.60
2017-11-01T22:41:12.883Z,80.70
2017-11-01T22:42:15.666Z,80.10
2017-11-01T22:43:18.432Z,80.10
2017-11-01T22:44:21.767Z,79.90
2017-11-01T22:45:24.294Z,79.80
2017-11-01T22:46:26.857Z,79.80
2017-11-01T22:47:29.389Z,79.80
2017-11-01T22:48:31.918Z,79.80
2017-11-01T22:49:35.208Z,79.60
2017-11-01T22:50:37.744Z,79.60
2017-11-01T22:51:41.114Z,79.50
2017-11-01T22:52:43.635Z,79.50
2017-11-01T22:53:46.170Z,79.10
2017-11-01T22:54:49.461Z,79.00
2017-11-01T22:55:52.762Z,78.80
2017-11-01T22:56:55.337Z,78.80
2017-11-01T22:57:57.858Z,78.70
2017-11-01T22:59:00.389Z,78.50
2017-11-01T23:00:02.951Z,78.30
2017-11-01T23:01:05.470Z,78.40
2017-11-01T23:02:08.797Z,78.20
2017-11-01T23:03:11.323Z,78.20
2017-11-01T23:04:14.654Z,78.30
2017-11-01T23:05:17.186Z,78.20
2017-11-01T23:06:19.753Z,78.20
2017-11-01T23:07:22.281Z,78.10
2017-11-01T23:08:24.858Z,78.50
2017-11-01T23:09:27.378Z,78.20
2017-11-01T23:10:29.914Z,78.00
2017-11-01T23:11:33.200Z,78.30
2017-11-01T23:12:36.481Z,78.20
2017-11-01T23:13:39.810Z,78.00
2017-11-01T23:14:42.338Z,78.00
2017-11-01T23:15:44.861Z,78.00
2017-11-01T23:16:47.414Z,77.70
2017-11-01T23:17:49.944Z,78.10
2017-11-01T23:18:52.511Z,78.30
2017-11-01T23:19:55.044Z,78.30
2017-11-01T23:20:58.336Z,78.80
2017-11-01T23:22:01.629Z,78.60
2017-11-01T23:23:04.967Z,78.50
2017-11-01T23:24:07.487Z,78.50
2017-11-01T23:25:10.010Z,78.50
2017-11-01T23:26:12.534Z,78.30
2017-11-01T23:27:15.057Z,78.10
2017-11-01T23:28:17.606Z,78.60
2017-11-01T23:29:20.122Z,78.30
2017-11-01T23:30:22.645Z,78.10
2017-11-01T23:31:25.175Z,78.10
2017-11-01T23:32:27.703Z,78.30
2017-11-01T23:33:30.315Z,78.20
2017-11-01T23:34:32.850Z,78.30
2017-11-01T23:35:35.386Z,78.30
2017-11-01T23:36:37.910Z,77.90
2017-11-01T23:37:40.435Z,78.80
2017-11-01T23:38:43.003Z,77.90
2017-11-01T23:39:46.290Z,78.10
2017-11-01T23:40:48.820Z,78.10
2017-11-01T23:41:51.347Z,77.90
2017-11-01T23:42:53.901Z,78.00
2017-11-01T23:43:56.462Z,78.00
2017-11-01T23:44:58.985Z,77.90
2017-11-01T23:46:01.503Z,78.30
2017-11-01T23:47:04.030Z,78.30
2017-11-01T23:48:06.562Z,78.20
2017-11-01T23:49:09.135Z,77.80
2017-11-01T23:50:11.709Z,78.20
2017-11-01T23:51:14.233Z,78.30
2017-11-01T23:52:16.757Z,78.30
2017-11-01T23:53:19.293Z,78.50
2017-11-01T23:54:21.809Z,78.30
2017-11-01T23:55:25.151Z,78.30
2017-11-01T23:56:27.674Z,78.30
2017-11-01T23:57:30.201Z,78.40
2017-11-01T23:58:32.723Z,78.10
2017-11-01T23:59:35.253Z,78.10
